sensor_id;sensor_type;location;lat;lon;timestamp;P1;durP1;ratioP1;P2;durP2;ratioP2
27408;SDS011;20413;50.782;7.152;2022-08-03T00:01:36;2.00;;;1.80;;
27408;SDS011;20413;50.782;7.152;2022-08-03T00:04:02;2.47;;;1.60;;
27408;SDS011;20413;50.782;7.152;2022-08-03T00:06:29;1.80;;;1.60;;
27408;SDS011;20413;50.782;7.152;2022-08-03T00:08:55;2.17;;;1.65;;
27408;SDS011;20413;50.782;7.152;2022-08-03T00:11:21;2.83;;;1.90;;
27408;SDS011;20413;50.782;7.152;2022-08-03T00:13:47;3.05;;;1.85;;
27408;SDS011;20413;50.782;7.152;2022-08-03T00:16:13;2.38;;;2.03;;
27408;SDS011;20413;50.782;7.152;2022-08-03T00:18:39;3.08;;;1.65;;
27408;SDS011;20413;50.782;7.152;2022-08-03T00:21:06;2.15;;;1.95;;
27408;SDS011;20413;50.782;7.152;2022-08-03T00:23:32;1.73;;;1.63;;
27408;SDS011;20413;50.782;7.152;2022-08-03T00:25:58;1.55;;;1.23;;
27408;SDS011;20413;50.782;7.152;2022-08-03T00:28:24;2.13;;;1.73;;
27408;SDS011;20413;50.782;7.152;2022-08-03T00:30:50;3.35;;;1.70;;
27408;SDS011;20413;50.782;7.152;2022-08-03T00:33:16;2.30;;;1.70;;
27408;SDS011;20413;50.782;7.152;2022-08-03T00:35:42;3.20;;;1.63;;
27408;SDS011;20413;50.782;7.152;2022-08-03T00:38:08;2.70;;;1.80;;
27408;SDS011;20413;50.782;7.152;2022-08-03T00:40:34;2.65;;;1.80;;
27408;SDS011;20413;50.782;7.152;2022-08-03T00:43:02;2.15;;;1.90;;
27408;SDS011;20413;50.782;7.152;2022-08-03T00:45:29;2.40;;;1.60;;
27408;SDS011;20413;50.782;7.152;2022-08-03T00:47:55;2.17;;;1.97;;
27408;SDS011;20413;50.782;7.152;2022-08-03T00:50:22;2.08;;;1.60;;
27408;SDS011;20413;50.782;7.152;2022-08-03T00:52:49;2.70;;;2.00;;
27408;SDS011;20413;50.782;7.152;2022-08-03T00:55:16;2.30;;;1.90;;
27408;SDS011;20413;50.782;7.152;2022-08-03T00:57:42;3.10;;;1.83;;
27408;SDS011;20413;50.782;7.152;2022-08-03T01:00:09;2.58;;;1.90;;
27408;SDS011;20413;50.782;7.152;2022-08-03T01:02:39;1.83;;;1.73;;
27408;SDS011;20413;50.782;7.152;2022-08-03T01:05:05;2.28;;;2.10;;
27408;SDS011;20413;50.782;7.152;2022-08-03T01:07:36;4.10;;;2.05;;
27408;SDS011;20413;50.782;7.152;2022-08-03T01:10:13;2.65;;;1.98;;
27408;SDS011;20413;50.782;7.152;2022-08-03T01:12:42;2.20;;;2.00;;
27408;SDS011;20413;50.782;7.152;2022-08-03T01:17:47;2.22;;;1.88;;
27408;SDS011;20413;50.782;7.152;2022-08-03T01:20:14;2.67;;;1.90;;
27408;SDS011;20413;50.782;7.152;2022-08-03T01:25:23;1.65;;;1.55;;
27408;SDS011;20413;50.782;7.152;2022-08-03T01:30:37;2.75;;;2.33;;
27408;SDS011;20413;50.782;7.152;2022-08-03T01:33:07;2.15;;;1.63;;
27408;SDS011;20413;50.782;7.152;2022-08-03T01:35:42;2.22;;;2.05;;
27408;SDS011;20413;50.782;7.152;2022-08-03T01:38:11;1.92;;;1.83;;
27408;SDS011;20413;50.782;7.152;2022-08-03T01:40:38;5.13;;;1.95;;
27408;SDS011;20413;50.782;7.152;2022-08-03T01:43:05;2.15;;;2.00;;
27408;SDS011;20413;50.782;7.152;2022-08-03T01:45:32;4.07;;;1.92;;
27408;SDS011;20413;50.782;7.152;2022-08-03T01:47:59;1.90;;;1.80;;
27408;SDS011;20413;50.782;7.152;2022-08-03T01:50:26;2.60;;;1.90;;
27408;SDS011;20413;50.782;7.152;2022-08-03T01:52:53;2.08;;;1.52;;
27408;SDS011;20413;50.782;7.152;2022-08-03T01:55:21;2.73;;;1.90;;
27408;SDS011;20413;50.782;7.152;2022-08-03T01:57:47;3.15;;;2.13;;
27408;SDS011;20413;50.782;7.152;2022-08-03T02:00:14;2.10;;;1.60;;
27408;SDS011;20413;50.782;7.152;2022-08-03T02:02:41;1.90;;;1.80;;
27408;SDS011;20413;50.782;7.152;2022-08-03T02:05:08;3.22;;;1.80;;
27408;SDS011;20413;50.782;7.152;2022-08-03T02:07:36;3.17;;;2.28;;
27408;SDS011;20413;50.782;7.152;2022-08-03T02:10:04;2.05;;;1.95;;
27408;SDS011;20413;50.782;7.152;2022-08-03T02:12:31;2.08;;;1.88;;
27408;SDS011;20413;50.782;7.152;2022-08-03T02:14:58;2.90;;;2.28;;
27408;SDS011;20413;50.782;7.152;2022-08-03T02:17:25;2.30;;;2.03;;
27408;SDS011;20413;50.782;7.152;2022-08-03T02:19:52;4.73;;;2.20;;
27408;SDS011;20413;50.782;7.152;2022-08-03T02:22:19;2.70;;;2.00;;
27408;SDS011;20413;50.782;7.152;2022-08-03T02:24:46;3.08;;;2.50;;
27408;SDS011;20413;50.782;7.152;2022-08-03T02:27:17;3.63;;;1.88;;
27408;SDS011;20413;50.782;7.152;2022-08-03T02:29:45;4.50;;;2.28;;
27408;SDS011;20413;50.782;7.152;2022-08-03T02:32:15;1.80;;;1.70;;
27408;SDS011;20413;50.782;7.152;2022-08-03T02:34:44;2.50;;;2.30;;
27408;SDS011;20413;50.782;7.152;2022-08-03T02:37:11;2.92;;;2.00;;
27408;SDS011;20413;50.782;7.152;2022-08-03T02:39:38;2.63;;;2.42;;
27408;SDS011;20413;50.782;7.152;2022-08-03T02:42:07;3.60;;;2.33;;
27408;SDS011;20413;50.782;7.152;2022-08-03T02:44:34;2.30;;;2.10;;
27408;SDS011;20413;50.782;7.152;2022-08-03T02:47:04;2.10;;;1.85;;
27408;SDS011;20413;50.782;7.152;2022-08-03T02:49:32;2.70;;;2.03;;
27408;SDS011;20413;50.782;7.152;2022-08-03T02:51:59;2.05;;;1.95;;
27408;SDS011;20413;50.782;7.152;2022-08-03T02:54:25;3.50;;;2.10;;
27408;SDS011;20413;50.782;7.152;2022-08-03T02:56:53;2.08;;;1.98;;
27408;SDS011;20413;50.782;7.152;2022-08-03T02:59:20;2.17;;;1.80;;
27408;SDS011;20413;50.782;7.152;2022-08-03T03:04:14;2.25;;;2.08;;
27408;SDS011;20413;50.782;7.152;2022-08-03T03:06:40;2.20;;;2.10;;
27408;SDS011;20413;50.782;7.152;2022-08-03T03:09:07;2.78;;;2.33;;
27408;SDS011;20413;50.782;7.152;2022-08-03T03:11:33;2.22;;;2.10;;
27408;SDS011;20413;50.782;7.152;2022-08-03T03:14:01;2.60;;;2.10;;
27408;SDS011;20413;50.782;7.152;2022-08-03T03:16:27;3.60;;;2.15;;
27408;SDS011;20413;50.782;7.152;2022-08-03T03:18:54;3.80;;;2.13;;
27408;SDS011;20413;50.782;7.152;2022-08-03T03:21:20;2.83;;;1.70;;
27408;SDS011;20413;50.782;7.152;2022-08-03T03:23:47;2.85;;;2.17;;
27408;SDS011;20413;50.782;7.152;2022-08-03T03:26:14;2.55;;;2.13;;
27408;SDS011;20413;50.782;7.152;2022-08-03T03:28:40;1.90;;;1.80;;
27408;SDS011;20413;50.782;7.152;2022-08-03T03:31:07;3.60;;;2.50;;
27408;SDS011;20413;50.782;7.152;2022-08-03T03:33:33;3.33;;;2.28;;
27408;SDS011;20413;50.782;7.152;2022-08-03T03:35:59;2.70;;;2.50;;
27408;SDS011;20413;50.782;7.152;2022-08-03T03:38:26;2.15;;;2.00;;
27408;SDS011;20413;50.782;7.152;2022-08-03T03:40:52;2.60;;;2.40;;
27408;SDS011;20413;50.782;7.152;2022-08-03T03:43:18;2.75;;;2.55;;
27408;SDS011;20413;50.782;7.152;2022-08-03T03:45:44;4.45;;;2.13;;
27408;SDS011;20413;50.782;7.152;2022-08-03T03:48:12;2.10;;;2.00;;
27408;SDS011;20413;50.782;7.152;2022-08-03T03:50:38;3.55;;;2.30;;
27408;SDS011;20413;50.782;7.152;2022-08-03T03:53:07;4.57;;;2.40;;
27408;SDS011;20413;50.782;7.152;2022-08-03T03:55:33;3.47;;;2.50;;
27408;SDS011;20413;50.782;7.152;2022-08-03T03:57:59;2.40;;;2.20;;
27408;SDS011;20413;50.782;7.152;2022-08-03T04:00:25;2.17;;;1.98;;
27408;SDS011;20413;50.782;7.152;2022-08-03T04:02:51;3.45;;;2.85;;
27408;SDS011;20413;50.782;7.152;2022-08-03T04:05:17;2.50;;;2.17;;
27408;SDS011;20413;50.782;7.152;2022-08-03T04:08:06;2.90;;;2.38;;
27408;SDS011;20413;50.782;7.152;2022-08-03T04:11:01;2.65;;;2.25;;
27408;SDS011;20413;50.782;7.152;2022-08-03T04:13:38;3.40;;;2.25;;
27408;SDS011;20413;50.782;7.152;2022-08-03T04:16:05;2.67;;;2.38;;
27408;SDS011;20413;50.782;7.152;2022-08-03T04:18:32;2.40;;;2.20;;
27408;SDS011;20413;50.782;7.152;2022-08-03T04:21:02;2.92;;;1.98;;
27408;SDS011;20413;50.782;7.152;2022-08-03T04:23:29;4.32;;;2.00;;
27408;SDS011;20413;50.782;7.152;2022-08-03T04:25:56;2.47;;;2.28;;
27408;SDS011;20413;50.782;7.152;2022-08-03T04:28:23;4.43;;;2.22;;
27408;SDS011;20413;50.782;7.152;2022-08-03T04:30:50;2.95;;;2.40;;
27408;SDS011;20413;50.782;7.152;2022-08-03T04:33:17;2.50;;;2.30;;
27408;SDS011;20413;50.782;7.152;2022-08-03T04:35:44;2.47;;;2.28;;
27408;SDS011;20413;50.782;7.152;2022-08-03T04:38:12;3.63;;;2.15;;
27408;SDS011;20413;50.782;7.152;2022-08-03T04:40:39;2.00;;;1.80;;
27408;SDS011;20413;50.782;7.152;2022-08-03T04:43:06;3.70;;;2.38;;
27408;SDS011;20413;50.782;7.152;2022-08-03T04:45:33;4.47;;;2.17;;
27408;SDS011;20413;50.782;7.152;2022-08-03T04:48:00;3.13;;;2.50;;
27408;SDS011;20413;50.782;7.152;2022-08-03T04:50:26;2.92;;;2.25;;
27408;SDS011;20413;50.782;7.152;2022-08-03T04:52:53;3.40;;;2.65;;
27408;SDS011;20413;50.782;7.152;2022-08-03T04:55:29;2.75;;;2.42;;
27408;SDS011;20413;50.782;7.152;2022-08-03T04:57:55;2.53;;;2.30;;
27408;SDS011;20413;50.782;7.152;2022-08-03T05:00:22;3.80;;;2.65;;
27408;SDS011;20413;50.782;7.152;2022-08-03T05:02:48;3.42;;;2.40;;
27408;SDS011;20413;50.782;7.152;2022-08-03T05:05:14;3.15;;;2.40;;
27408;SDS011;20413;50.782;7.152;2022-08-03T05:07:41;3.58;;;2.40;;
27408;SDS011;20413;50.782;7.152;2022-08-03T05:10:09;3.35;;;2.47;;
27408;SDS011;20413;50.782;7.152;2022-08-03T05:12:35;4.47;;;2.47;;
27408;SDS011;20413;50.782;7.152;2022-08-03T05:15:01;3.75;;;2.08;;
27408;SDS011;20413;50.782;7.152;2022-08-03T05:17:28;3.67;;;2.60;;
27408;SDS011;20413;50.782;7.152;2022-08-03T05:19:54;5.53;;;2.60;;
27408;SDS011;20413;50.782;7.152;2022-08-03T05:22:20;3.83;;;2.20;;
27408;SDS011;20413;50.782;7.152;2022-08-03T05:24:46;7.05;;;2.40;;
27408;SDS011;20413;50.782;7.152;2022-08-03T05:27:12;2.83;;;2.53;;
27408;SDS011;20413;50.782;7.152;2022-08-03T05:29:43;6.88;;;2.95;;
27408;SDS011;20413;50.782;7.152;2022-08-03T05:32:09;6.32;;;2.80;;
27408;SDS011;20413;50.782;7.152;2022-08-03T05:34:35;5.75;;;2.50;;
27408;SDS011;20413;50.782;7.152;2022-08-03T05:37:01;7.85;;;2.90;;
27408;SDS011;20413;50.782;7.152;2022-08-03T05:39:27;7.95;;;3.45;;
27408;SDS011;20413;50.782;7.152;2022-08-03T05:41:53;10.63;;;2.75;;
27408;SDS011;20413;50.782;7.152;2022-08-03T05:44:19;7.93;;;3.25;;
27408;SDS011;20413;50.782;7.152;2022-08-03T05:46:46;14.02;;;3.17;;
27408;SDS011;20413;50.782;7.152;2022-08-03T05:49:12;7.75;;;2.60;;
27408;SDS011;20413;50.782;7.152;2022-08-03T05:51:38;5.25;;;2.92;;
27408;SDS011;20413;50.782;7.152;2022-08-03T05:54:04;4.18;;;2.47;;
27408;SDS011;20413;50.782;7.152;2022-08-03T05:56:30;5.03;;;2.55;;
27408;SDS011;20413;50.782;7.152;2022-08-03T05:58:56;5.63;;;3.05;;
27408;SDS011;20413;50.782;7.152;2022-08-03T06:01:22;6.50;;;2.38;;
27408;SDS011;20413;50.782;7.152;2022-08-03T06:03:48;6.75;;;2.72;;
27408;SDS011;20413;50.782;7.152;2022-08-03T06:06:15;5.75;;;3.40;;
27408;SDS011;20413;50.782;7.152;2022-08-03T06:08:41;3.17;;;2.38;;
27408;SDS011;20413;50.782;7.152;2022-08-03T06:11:08;4.47;;;2.60;;
27408;SDS011;20413;50.782;7.152;2022-08-03T06:13:34;4.13;;;2.38;;
27408;SDS011;20413;50.782;7.152;2022-08-03T06:16:00;3.80;;;2.65;;
27408;SDS011;20413;50.782;7.152;2022-08-03T06:18:26;5.03;;;2.17;;
27408;SDS011;20413;50.782;7.152;2022-08-03T06:20:51;7.50;;;2.60;;
27408;SDS011;20413;50.782;7.152;2022-08-03T06:23:17;10.18;;;2.35;;
27408;SDS011;20413;50.782;7.152;2022-08-03T06:25:43;3.15;;;2.47;;
27408;SDS011;20413;50.782;7.152;2022-08-03T06:28:09;8.75;;;2.42;;
27408;SDS011;20413;50.782;7.152;2022-08-03T06:30:36;4.40;;;2.15;;
27408;SDS011;20413;50.782;7.152;2022-08-03T06:33:02;2.90;;;2.50;;
27408;SDS011;20413;50.782;7.152;2022-08-03T06:35:27;5.65;;;2.55;;
27408;SDS011;20413;50.782;7.152;2022-08-03T06:37:53;6.72;;;2.70;;
27408;SDS011;20413;50.782;7.152;2022-08-03T06:40:20;4.10;;;1.92;;
27408;SDS011;20413;50.782;7.152;2022-08-03T06:42:56;2.45;;;2.25;;
27408;SDS011;20413;50.782;7.152;2022-08-03T06:45:23;5.78;;;2.40;;
27408;SDS011;20413;50.782;7.152;2022-08-03T06:47:58;5.90;;;1.85;;
27408;SDS011;20413;50.782;7.152;2022-08-03T06:50:31;6.97;;;2.10;;
27408;SDS011;20413;50.782;7.152;2022-08-03T06:52:58;4.03;;;2.40;;
27408;SDS011;20413;50.782;7.152;2022-08-03T06:55:24;2.38;;;2.00;;
27408;SDS011;20413;50.782;7.152;2022-08-03T06:57:49;7.38;;;2.72;;
27408;SDS011;20413;50.782;7.152;2022-08-03T07:00:15;3.17;;;1.85;;
27408;SDS011;20413;50.782;7.152;2022-08-03T07:02:41;3.88;;;2.45;;
27408;SDS011;20413;50.782;7.152;2022-08-03T07:05:07;3.42;;;1.80;;
27408;SDS011;20413;50.782;7.152;2022-08-03T07:07:34;3.10;;;1.92;;
27408;SDS011;20413;50.782;7.152;2022-08-03T07:10:00;2.72;;;1.70;;
27408;SDS011;20413;50.782;7.152;2022-08-03T07:12:26;4.18;;;2.00;;
27408;SDS011;20413;50.782;7.152;2022-08-03T07:14:52;2.85;;;1.80;;
27408;SDS011;20413;50.782;7.152;2022-08-03T07:17:19;2.30;;;2.10;;
27408;SDS011;20413;50.782;7.152;2022-08-03T07:19:44;3.00;;;1.83;;
27408;SDS011;20413;50.782;7.152;2022-08-03T07:22:10;2.95;;;1.60;;
27408;SDS011;20413;50.782;7.152;2022-08-03T07:24:36;4.65;;;2.03;;
27408;SDS011;20413;50.782;7.152;2022-08-03T07:27:02;3.17;;;1.55;;
27408;SDS011;20413;50.782;7.152;2022-08-03T07:29:28;2.40;;;1.73;;
27408;SDS011;20413;50.782;7.152;2022-08-03T07:31:54;1.52;;;1.42;;
27408;SDS011;20413;50.782;7.152;2022-08-03T07:34:20;1.40;;;1.30;;
27408;SDS011;20413;50.782;7.152;2022-08-03T07:36:46;1.70;;;1.60;;
27408;SDS011;20413;50.782;7.152;2022-08-03T07:39:12;2.45;;;1.45;;
27408;SDS011;20413;50.782;7.152;2022-08-03T07:41:38;3.80;;;1.55;;
27408;SDS011;20413;50.782;7.152;2022-08-03T07:44:03;1.50;;;1.40;;
27408;SDS011;20413;50.782;7.152;2022-08-03T07:46:29;2.85;;;1.17;;
27408;SDS011;20413;50.782;7.152;2022-08-03T07:48:54;5.00;;;1.27;;
27408;SDS011;20413;50.782;7.152;2022-08-03T07:51:20;1.20;;;1.10;;
27408;SDS011;20413;50.782;7.152;2022-08-03T07:53:46;1.77;;;1.30;;
27408;SDS011;20413;50.782;7.152;2022-08-03T07:56:12;1.98;;;1.33;;
27408;SDS011;20413;50.782;7.152;2022-08-03T07:58:38;1.30;;;1.20;;
27408;SDS011;20413;50.782;7.152;2022-08-03T08:01:04;1.42;;;1.00;;
27408;SDS011;20413;50.782;7.152;2022-08-03T08:03:31;2.60;;;1.30;;
27408;SDS011;20413;50.782;7.152;2022-08-03T08:05:57;2.33;;;1.30;;
27408;SDS011;20413;50.782;7.152;2022-08-03T08:08:23;1.25;;;1.15;;
27408;SDS011;20413;50.782;7.152;2022-08-03T08:10:49;5.38;;;1.10;;
27408;SDS011;20413;50.782;7.152;2022-08-03T08:13:15;3.80;;;1.05;;
27408;SDS011;20413;50.782;7.152;2022-08-03T08:15:41;1.50;;;1.00;;
27408;SDS011;20413;50.782;7.152;2022-08-03T08:18:07;1.83;;;1.10;;
27408;SDS011;20413;50.782;7.152;2022-08-03T08:20:34;3.28;;;1.05;;
27408;SDS011;20413;50.782;7.152;2022-08-03T08:23:03;2.72;;;0.90;;
27408;SDS011;20413;50.782;7.152;2022-08-03T08:25:29;3.03;;;1.17;;
27408;SDS011;20413;50.782;7.152;2022-08-03T08:27:56;1.60;;;1.10;;
27408;SDS011;20413;50.782;7.152;2022-08-03T08:30:22;5.57;;;1.20;;
27408;SDS011;20413;50.782;7.152;2022-08-03T08:32:48;6.63;;;1.10;;
27408;SDS011;20413;50.782;7.152;2022-08-03T08:35:15;1.52;;;1.08;;
27408;SDS011;20413;50.782;7.152;2022-08-03T08:37:41;0.93;;;0.80;;
27408;SDS011;20413;50.782;7.152;2022-08-03T08:40:08;3.72;;;1.00;;
27408;SDS011;20413;50.782;7.152;2022-08-03T08:42:37;1.02;;;1.00;;
27408;SDS011;20413;50.782;7.152;2022-08-03T08:45:03;1.50;;;1.40;;
27408;SDS011;20413;50.782;7.152;2022-08-03T08:47:31;2.35;;;0.90;;
27408;SDS011;20413;50.782;7.152;2022-08-03T08:49:58;0.90;;;0.90;;
27408;SDS011;20413;50.782;7.152;2022-08-03T08:52:24;2.75;;;0.65;;
27408;SDS011;20413;50.782;7.152;2022-08-03T08:54:53;0.90;;;0.80;;
27408;SDS011;20413;50.782;7.152;2022-08-03T08:57:22;1.63;;;0.85;;
27408;SDS011;20413;50.782;7.152;2022-08-03T08:59:54;0.70;;;0.70;;
27408;SDS011;20413;50.782;7.152;2022-08-03T09:04:49;1.05;;;0.60;;
27408;SDS011;20413;50.782;7.152;2022-08-03T09:07:15;0.97;;;0.60;;
27408;SDS011;20413;50.782;7.152;2022-08-03T09:09:42;3.28;;;0.80;;
27408;SDS011;20413;50.782;7.152;2022-08-03T09:12:08;2.10;;;0.77;;
27408;SDS011;20413;50.782;7.152;2022-08-03T09:14:34;3.40;;;0.63;;
27408;SDS011;20413;50.782;7.152;2022-08-03T09:17:01;0.50;;;0.50;;
27408;SDS011;20413;50.782;7.152;2022-08-03T09:19:28;1.60;;;0.82;;
27408;SDS011;20413;50.782;7.152;2022-08-03T09:22:08;1.77;;;0.70;;
27408;SDS011;20413;50.782;7.152;2022-08-03T09:24:35;3.70;;;0.80;;
27408;SDS011;20413;50.782;7.152;2022-08-03T09:27:01;1.20;;;0.90;;
27408;SDS011;20413;50.782;7.152;2022-08-03T09:29:30;2.55;;;0.80;;
27408;SDS011;20413;50.782;7.152;2022-08-03T09:32:00;2.83;;;0.95;;
27408;SDS011;20413;50.782;7.152;2022-08-03T09:34:27;1.95;;;0.63;;
27408;SDS011;20413;50.782;7.152;2022-08-03T09:36:53;3.93;;;1.30;;
27408;SDS011;20413;50.782;7.152;2022-08-03T09:39:20;2.75;;;0.88;;
27408;SDS011;20413;50.782;7.152;2022-08-03T09:42:09;2.60;;;0.60;;
27408;SDS011;20413;50.782;7.152;2022-08-03T09:44:33;2.17;;;0.98;;
27408;SDS011;20413;50.782;7.152;2022-08-03T09:47:00;4.53;;;1.13;;
27408;SDS011;20413;50.782;7.152;2022-08-03T09:49:26;2.17;;;0.82;;
27408;SDS011;20413;50.782;7.152;2022-08-03T09:51:52;1.90;;;1.00;;
27408;SDS011;20413;50.782;7.152;2022-08-03T09:54:28;3.83;;;0.80;;
27408;SDS011;20413;50.782;7.152;2022-08-03T09:56:55;1.08;;;0.80;;
27408;SDS011;20413;50.782;7.152;2022-08-03T09:59:25;3.08;;;1.00;;
27408;SDS011;20413;50.782;7.152;2022-08-03T10:01:53;0.90;;;0.75;;
27408;SDS011;20413;50.782;7.152;2022-08-03T10:04:19;2.25;;;0.75;;
27408;SDS011;20413;50.782;7.152;2022-08-03T10:07:00;0.98;;;0.60;;
27408;SDS011;20413;50.782;7.152;2022-08-03T10:09:27;3.20;;;0.93;;
27408;SDS011;20413;50.782;7.152;2022-08-03T10:11:53;3.08;;;0.60;;
27408;SDS011;20413;50.782;7.152;2022-08-03T10:14:19;1.10;;;1.00;;
27408;SDS011;20413;50.782;7.152;2022-08-03T10:16:46;0.85;;;0.57;;
27408;SDS011;20413;50.782;7.152;2022-08-03T10:19:12;1.47;;;0.80;;
27408;SDS011;20413;50.782;7.152;2022-08-03T10:21:40;2.42;;;0.47;;
27408;SDS011;20413;50.782;7.152;2022-08-03T10:24:23;2.25;;;0.60;;
27408;SDS011;20413;50.782;7.152;2022-08-03T10:26:52;3.85;;;0.88;;
27408;SDS011;20413;50.782;7.152;2022-08-03T10:29:23;2.47;;;0.90;;
27408;SDS011;20413;50.782;7.152;2022-08-03T10:31:51;2.08;;;0.93;;
27408;SDS011;20413;50.782;7.152;2022-08-03T10:34:24;1.60;;;0.80;;
27408;SDS011;20413;50.782;7.152;2022-08-03T10:36:51;1.10;;;0.65;;
27408;SDS011;20413;50.782;7.152;2022-08-03T10:39:21;1.83;;;1.05;;
27408;SDS011;20413;50.782;7.152;2022-08-03T10:41:47;1.33;;;0.63;;
27408;SDS011;20413;50.782;7.152;2022-08-03T10:44:18;2.25;;;0.80;;
27408;SDS011;20413;50.782;7.152;2022-08-03T10:46:47;3.30;;;0.90;;
27408;SDS011;20413;50.782;7.152;2022-08-03T10:49:14;1.00;;;0.90;;
27408;SDS011;20413;50.782;7.152;2022-08-03T10:51:44;1.65;;;0.82;;
27408;SDS011;20413;50.782;7.152;2022-08-03T10:56:59;1.65;;;0.77;;
27408;SDS011;20413;50.782;7.152;2022-08-03T11:02:09;2.00;;;0.70;;
27408;SDS011;20413;50.782;7.152;2022-08-03T11:04:36;4.00;;;0.82;;
27408;SDS011;20413;50.782;7.152;2022-08-03T11:09:46;1.17;;;0.77;;
27408;SDS011;20413;50.782;7.152;2022-08-03T11:12:20;1.40;;;0.80;;
27408;SDS011;20413;50.782;7.152;2022-08-03T11:14:46;3.47;;;1.00;;
27408;SDS011;20413;50.782;7.152;2022-08-03T11:17:13;0.70;;;0.60;;
27408;SDS011;20413;50.782;7.152;2022-08-03T11:22:10;1.13;;;0.80;;
27408;SDS011;20413;50.782;7.152;2022-08-03T11:35:09;2.03;;;0.93;;
27408;SDS011;20413;50.782;7.152;2022-08-03T11:37:35;3.72;;;0.93;;
27408;SDS011;20413;50.782;7.152;2022-08-03T11:40:01;0.70;;;0.70;;
27408;SDS011;20413;50.782;7.152;2022-08-03T11:44:54;3.77;;;1.10;;
27408;SDS011;20413;50.782;7.152;2022-08-03T11:47:20;3.35;;;0.98;;
27408;SDS011;20413;50.782;7.152;2022-08-03T11:49:48;2.38;;;1.00;;
27408;SDS011;20413;50.782;7.152;2022-08-03T11:52:15;2.58;;;0.90;;
27408;SDS011;20413;50.782;7.152;2022-08-03T11:54:41;2.50;;;0.93;;
27408;SDS011;20413;50.782;7.152;2022-08-03T11:57:07;1.40;;;0.68;;
27408;SDS011;20413;50.782;7.152;2022-08-03T11:59:34;1.08;;;0.70;;
27408;SDS011;20413;50.782;7.152;2022-08-03T12:02:10;1.67;;;0.80;;
27408;SDS011;20413;50.782;7.152;2022-08-03T12:04:53;1.48;;;0.88;;
27408;SDS011;20413;50.782;7.152;2022-08-03T12:07:22;8.10;;;1.05;;
27408;SDS011;20413;50.782;7.152;2022-08-03T12:12:34;0.93;;;0.80;;
27408;SDS011;20413;50.782;7.152;2022-08-03T12:15:00;1.30;;;0.60;;
27408;SDS011;20413;50.782;7.152;2022-08-03T12:17:32;1.73;;;0.77;;
27408;SDS011;20413;50.782;7.152;2022-08-03T12:20:03;1.60;;;0.65;;
27408;SDS011;20413;50.782;7.152;2022-08-03T12:22:39;1.60;;;0.70;;
27408;SDS011;20413;50.782;7.152;2022-08-03T12:25:05;3.65;;;0.73;;
27408;SDS011;20413;50.782;7.152;2022-08-03T12:27:32;1.73;;;1.10;;
27408;SDS011;20413;50.782;7.152;2022-08-03T12:29:58;1.17;;;0.50;;
27408;SDS011;20413;50.782;7.152;2022-08-03T12:32:28;3.03;;;0.52;;
27408;SDS011;20413;50.782;7.152;2022-08-03T12:34:55;2.50;;;0.90;;
27408;SDS011;20413;50.782;7.152;2022-08-03T12:37:30;1.50;;;0.85;;
27408;SDS011;20413;50.782;7.152;2022-08-03T12:39:57;0.70;;;0.70;;
27408;SDS011;20413;50.782;7.152;2022-08-03T12:42:32;2.95;;;0.82;;
27408;SDS011;20413;50.782;7.152;2022-08-03T12:44:58;1.63;;;1.02;;
27408;SDS011;20413;50.782;7.152;2022-08-03T12:47:24;1.15;;;0.73;;
27408;SDS011;20413;50.782;7.152;2022-08-03T12:49:51;2.30;;;1.00;;
27408;SDS011;20413;50.782;7.152;2022-08-03T12:52:17;1.65;;;0.85;;
27408;SDS011;20413;50.782;7.152;2022-08-03T12:54:56;1.23;;;0.60;;
27408;SDS011;20413;50.782;7.152;2022-08-03T12:57:22;2.05;;;0.77;;
27408;SDS011;20413;50.782;7.152;2022-08-03T12:59:48;1.70;;;0.80;;
27408;SDS011;20413;50.782;7.152;2022-08-03T13:02:15;0.50;;;0.47;;
27408;SDS011;20413;50.782;7.152;2022-08-03T13:04:42;5.05;;;0.63;;
27408;SDS011;20413;50.782;7.152;2022-08-03T13:07:09;5.25;;;0.80;;
27408;SDS011;20413;50.782;7.152;2022-08-03T13:09:48;2.78;;;0.50;;
27408;SDS011;20413;50.782;7.152;2022-08-03T13:12:24;3.28;;;0.57;;
27408;SDS011;20413;50.782;7.152;2022-08-03T13:14:52;2.03;;;0.80;;
27408;SDS011;20413;50.782;7.152;2022-08-03T13:17:18;0.57;;;0.55;;
27408;SDS011;20413;50.782;7.152;2022-08-03T13:19:44;2.45;;;0.68;;
27408;SDS011;20413;50.782;7.152;2022-08-03T13:22:11;1.15;;;0.35;;
27408;SDS011;20413;50.782;7.152;2022-08-03T13:27:03;2.35;;;0.60;;
27408;SDS011;20413;50.782;7.152;2022-08-03T13:29:31;4.35;;;0.82;;
27408;SDS011;20413;50.782;7.152;2022-08-03T13:31:57;1.85;;;0.60;;
27408;SDS011;20413;50.782;7.152;2022-08-03T13:34:23;7.55;;;0.95;;
27408;SDS011;20413;50.782;7.152;2022-08-03T13:36:49;2.70;;;0.90;;
27408;SDS011;20413;50.782;7.152;2022-08-03T13:39:15;0.90;;;0.55;;
27408;SDS011;20413;50.782;7.152;2022-08-03T13:41:41;1.25;;;0.75;;
27408;SDS011;20413;50.782;7.152;2022-08-03T13:44:07;2.00;;;0.45;;
27408;SDS011;20413;50.782;7.152;2022-08-03T13:46:33;1.85;;;0.75;;
27408;SDS011;20413;50.782;7.152;2022-08-03T13:48:59;1.60;;;1.00;;
27408;SDS011;20413;50.782;7.152;2022-08-03T13:51:25;2.50;;;0.70;;
27408;SDS011;20413;50.782;7.152;2022-08-03T13:53:51;0.65;;;0.60;;
27408;SDS011;20413;50.782;7.152;2022-08-03T13:56:17;1.73;;;0.65;;
27408;SDS011;20413;50.782;7.152;2022-08-03T13:58:43;1.90;;;0.77;;
27408;SDS011;20413;50.782;7.152;2022-08-03T14:01:09;0.70;;;0.60;;
27408;SDS011;20413;50.782;7.152;2022-08-03T14:03:36;0.83;;;0.70;;
27408;SDS011;20413;50.782;7.152;2022-08-03T14:06:02;1.42;;;0.60;;
27408;SDS011;20413;50.782;7.152;2022-08-03T14:08:28;1.38;;;0.52;;
27408;SDS011;20413;50.782;7.152;2022-08-03T14:10:54;1.13;;;0.70;;
27408;SDS011;20413;50.782;7.152;2022-08-03T14:13:20;1.80;;;1.00;;
27408;SDS011;20413;50.782;7.152;2022-08-03T14:15:46;3.37;;;0.83;;
27408;SDS011;20413;50.782;7.152;2022-08-03T14:18:12;1.58;;;0.57;;
27408;SDS011;20413;50.782;7.152;2022-08-03T14:20:38;0.82;;;0.55;;
27408;SDS011;20413;50.782;7.152;2022-08-03T14:23:05;2.57;;;0.67;;
27408;SDS011;20413;50.782;7.152;2022-08-03T14:25:31;0.95;;;0.75;;
27408;SDS011;20413;50.782;7.152;2022-08-03T14:27:57;1.55;;;0.47;;
27408;SDS011;20413;50.782;7.152;2022-08-03T14:30:23;3.17;;;0.65;;
27408;SDS011;20413;50.782;7.152;2022-08-03T14:32:49;1.88;;;0.57;;
27408;SDS011;20413;50.782;7.152;2022-08-03T14:35:15;0.93;;;0.70;;
27408;SDS011;20413;50.782;7.152;2022-08-03T14:37:41;4.88;;;1.08;;
27408;SDS011;20413;50.782;7.152;2022-08-03T14:40:07;7.25;;;0.90;;
27408;SDS011;20413;50.782;7.152;2022-08-03T14:42:33;0.80;;;0.70;;
27408;SDS011;20413;50.782;7.152;2022-08-03T14:44:59;1.10;;;0.60;;
27408;SDS011;20413;50.782;7.152;2022-08-03T14:47:25;2.90;;;1.02;;
27408;SDS011;20413;50.782;7.152;2022-08-03T14:49:51;2.15;;;0.40;;
27408;SDS011;20413;50.782;7.152;2022-08-03T14:52:17;3.55;;;0.70;;
27408;SDS011;20413;50.782;7.152;2022-08-03T14:54:44;1.17;;;0.65;;
27408;SDS011;20413;50.782;7.152;2022-08-03T14:57:10;2.10;;;0.80;;
27408;SDS011;20413;50.782;7.152;2022-08-03T14:59:36;1.15;;;0.82;;
27408;SDS011;20413;50.782;7.152;2022-08-03T15:02:02;0.60;;;0.60;;
27408;SDS011;20413;50.782;7.152;2022-08-03T15:04:28;1.60;;;0.65;;
27408;SDS011;20413;50.782;7.152;2022-08-03T15:06:54;2.22;;;1.15;;
27408;SDS011;20413;50.782;7.152;2022-08-03T15:09:20;1.35;;;0.80;;
27408;SDS011;20413;50.782;7.152;2022-08-03T15:11:46;2.20;;;0.98;;
27408;SDS011;20413;50.782;7.152;2022-08-03T15:14:12;0.95;;;0.70;;
27408;SDS011;20413;50.782;7.152;2022-08-03T15:16:38;2.90;;;0.70;;
27408;SDS011;20413;50.782;7.152;2022-08-03T15:19:04;1.23;;;0.77;;
27408;SDS011;20413;50.782;7.152;2022-08-03T15:21:30;0.93;;;0.50;;
27408;SDS011;20413;50.782;7.152;2022-08-03T15:23:56;1.75;;;0.77;;
27408;SDS011;20413;50.782;7.152;2022-08-03T15:26:22;2.75;;;0.80;;
27408;SDS011;20413;50.782;7.152;2022-08-03T15:28:48;2.80;;;0.68;;
27408;SDS011;20413;50.782;7.152;2022-08-03T15:31:19;3.50;;;1.08;;